Time;durP1;ratioP1;P1;durP2;ratioP2;P2;SDS_P1;SDS_P2;PMS_P1;PMS_P2;Temp;Humidity;BMP_temperature;BMP_pressure;BME280_temperature;BME280_humidity;BME280_pressure;Samples;Min_cycle;Max_cycle;Signal;HPM_P1;HPM_P2
2021/04/01 00:00:22;;;;;;;29.03;17.50;;;13.80;74.50;;;;;;5072156;28;20464;-46
2021/04/01 00:02:51;;;;;;;31.57;19.60;;;13.80;75.00;;;;;;5073024;28;20433;-47
2021/04/01 00:05:18;;;;;;;31.37;19.00;;;13.80;75.10;;;;;;5073644;28;20433;-46
2021/04/01 00:07:44;;;;;;;23.93;15.97;;;13.90;75.80;;;;;;5074221;28;20432;-47
2021/04/01 00:10:13;;;;;;;24.53;17.93;;;13.60;74.90;;;;;;5073849;28;20433;-46
2021/04/01 00:12:40;;;;;;;34.13;19.70;;;13.80;75.40;;;;;;5073161;28;20437;-46
2021/04/01 00:15:08;;;;;;;27.97;16.60;;;13.30;75.00;;;;;;5073624;28;20469;-46
2021/04/01 00:17:35;;;;;;;24.77;18.27;;;13.90;76.40;;;;;;5073128;28;20777;-47
2021/04/01 00:20:04;;;;;;;25.27;18.10;;;13.90;76.10;;;;;;5072939;28;20882;-47
2021/04/01 00:22:30;;;;;;;29.20;18.27;;;13.80;76.50;;;;;;5072978;28;20949;-47
2021/04/01 00:24:56;;;;;;;27.47;18.57;;;13.50;76.00;;;;;;5072381;28;20531;-47
2021/04/01 00:27:22;;;;;;;24.07;16.70;;;13.60;76.00;;;;;;5073431;28;20886;-47
2021/04/01 00:29:49;;;;;;;30.23;18.30;;;13.80;76.30;;;;;;5073165;28;20485;-47
2021/04/01 00:32:15;;;;;;;25.53;18.20;;;13.80;76.40;;;;;;5073838;28;20440;-48
2021/04/01 00:34:42;;;;;;;25.00;17.90;;;13.80;76.50;;;;;;5074067;28;20478;-47
2021/04/01 00:37:09;;;;;;;26.40;18.30;;;13.80;77.00;;;;;;5074849;28;20536;-46
2021/04/01 00:39:35;;;;;;;25.13;16.80;;;13.50;76.70;;;;;;5075316;28;20476;-47
2021/04/01 00:42:03;;;;;;;25.33;18.47;;;13.80;77.50;;;;;;5074281;28;20609;-47
2021/04/01 00:44:29;;;;;;;31.30;16.87;;;13.80;77.60;;;;;;5074767;28;20437;-46
2021/04/01 00:46:56;;;;;;;24.10;17.80;;;13.80;77.60;;;;;;5074871;28;20432;-48
2021/04/01 00:49:22;;;;;;;21.30;16.37;;;13.60;77.30;;;;;;5074872;28;20457;-47
2021/04/01 00:51:49;;;;;;;23.87;17.60;;;13.70;77.70;;;;;;5073322;28;20424;-48
2021/04/01 00:54:16;;;;;;;27.33;16.97;;;13.60;77.30;;;;;;5072382;28;20476;-46
2021/04/01 00:56:43;;;;;;;26.73;18.00;;;13.60;77.30;;;;;;5072747;28;20425;-47
2021/04/01 00:59:09;;;;;;;31.47;18.70;;;13.60;77.50;;;;;;5072789;28;20787;-47
2021/04/01 01:01:44;;;;;;;24.17;15.00;;;13.20;77.40;;;;;;5072350;28;20783;-47
2021/04/01 01:04:11;;;;;;;22.20;16.93;;;13.70;77.70;;;;;;5071168;28;20519;-47
2021/04/01 01:06:38;;;;;;;25.10;17.50;;;13.50;78.00;;;;;;5071361;28;20432;-46
2021/04/01 01:09:06;;;;;;;25.43;16.50;;;13.40;78.00;;;;;;5071282;28;20481;-46
2021/04/01 01:11:33;;;;;;;22.17;17.53;;;13.70;78.20;;;;;;5072128;28;20465;-47
2021/04/01 01:14:01;;;;;;;24.00;16.97;;;13.50;78.30;;;;;;5072159;28;20992;-46
2021/04/01 01:16:27;;;;;;;22.17;16.67;;;13.60;78.30;;;;;;5072153;28;20436;-46
2021/04/01 01:18:53;;;;;;;17.00;14.70;;;13.50;77.40;;;;;;5071731;28;20475;-46
2021/04/01 01:21:20;;;;;;;20.33;14.33;;;13.70;76.80;;;;;;5071233;28;20436;-47
2021/04/01 01:23:49;;;;;;;21.43;14.57;;;13.40;75.80;;;;;;5071099;28;20437;-46
2021/04/01 01:26:17;;;;;;;22.97;14.00;;;13.10;75.30;;;;;;5071420;28;20427;-46
2021/04/01 01:28:45;;;;;;;19.50;14.17;;;13.50;75.20;;;;;;5071468;28;20540;-47
2021/04/01 01:31:11;;;;;;;21.60;14.00;;;13.50;74.40;;;;;;5071270;28;20735;-47
2021/04/01 01:33:42;;;;;;;22.97;13.93;;;13.50;73.90;;;;;;5070742;28;20588;-48
2021/04/01 01:36:10;;;;;;;22.20;13.53;;;13.40;73.30;;;;;;5071408;28;20428;-46
2021/04/01 01:38:36;;;;;;;24.73;13.40;;;13.70;73.20;;;;;;5071055;28;20477;-47
2021/04/01 01:41:04;;;;;;;18.33;12.47;;;13.20;71.80;;;;;;5070990;28;20528;-48
2021/04/01 01:43:31;;;;;;;21.70;13.90;;;13.60;72.60;;;;;;5069514;28;20531;-47
2021/04/01 01:45:58;;;;;;;17.57;13.00;;;13.70;72.10;;;;;;5071260;28;20427;-47
2021/04/01 01:48:24;;;;;;;18.93;14.07;;;14.00;72.10;;;;;;5071047;28;20795;-47
2021/04/01 01:50:51;;;;;;;18.50;13.30;;;13.70;71.60;;;;;;5070973;28;20523;-47
2021/04/01 01:53:17;;;;;;;19.90;13.83;;;13.50;71.60;;;;;;5070606;28;20972;-47
2021/04/01 01:55:44;;;;;;;20.87;14.17;;;13.70;71.30;;;;;;5071015;28;20435;-48
2021/04/01 01:58:11;;;;;;;19.20;13.50;;;13.70;70.90;;;;;;5070962;28;21050;-48
2021/04/01 02:00:41;;;;;;;20.40;13.93;;;13.70;71.10;;;;;;5071105;28;20524;-47
2021/04/01 02:03:09;;;;;;;20.47;14.20;;;13.70;70.80;;;;;;5070587;28;20429;-47
2021/04/01 02:05:37;;;;;;;22.93;14.23;;;13.80;70.20;;;;;;5070869;28;20433;-47
2021/04/01 02:08:04;;;;;;;19.40;13.20;;;13.80;69.70;;;;;;5070878;28;20448;-47
2021/04/01 02:10:32;;;;;;;20.00;13.20;;;13.80;70.90;;;;;;5069892;28;20769;-47
2021/04/01 02:13:00;;;;;;;20.10;12.70;;;13.60;69.30;;;;;;5070426;28;20563;-47
2021/04/01 02:15:29;;;;;;;23.40;14.73;;;13.90;69.50;;;;;;5069510;28;20482;-48
2021/04/01 02:18:06;;;;;;;20.03;13.73;;;13.80;68.80;;;;;;5070699;28;20464;-47
2021/04/01 02:20:39;;;;;;;19.47;13.20;;;14.10;69.60;;;;;;5069346;28;20447;-47
2021/04/01 02:23:06;;;;;;;18.57;13.77;;;13.90;68.70;;;;;;5071039;28;20496;-48
2021/04/01 02:25:32;;;;;;;19.47;13.20;;;13.90;68.80;;;;;;5074115;28;20431;-47
2021/04/01 02:27:59;;;;;;;17.00;12.50;;;14.00;68.80;;;;;;5073966;28;20524;-48
2021/04/01 02:30:25;;;;;;;19.47;13.50;;;14.00;68.70;;;;;;5073303;28;20524;-48
2021/04/01 02:32:51;;;;;;;18.30;12.50;;;13.90;68.60;;;;;;5072440;28;20493;-48
2021/04/01 02:35:19;;;;;;;17.63;12.03;;;13.80;68.60;;;;;;5073802;28;20425;-47
2021/04/01 02:37:45;;;;;;;16.60;11.90;;;14.00;68.80;;;;;;5073775;28;20527;-48
2021/04/01 02:40:13;;;;;;;20.63;13.10;;;14.10;68.90;;;;;;5073733;28;20527;-48
2021/04/01 02:42:40;;;;;;;17.60;12.50;;;14.00;68.90;;;;;;5072383;28;20471;-48
2021/04/01 02:45:09;;;;;;;20.20;13.53;;;14.10;68.70;;;;;;5074049;28;20429;-47
2021/04/01 02:47:35;;;;;;;27.93;14.70;;;14.40;69.10;;;;;;5073791;28;20466;-48
2021/04/01 02:50:02;;;;;;;18.70;13.60;;;14.10;68.80;;;;;;5073854;28;20452;-47
2021/04/01 02:52:38;;;;;;;19.93;12.93;;;14.00;69.00;;;;;;5073704;28;20448;-47
2021/04/01 02:55:06;;;;;;;16.50;12.87;;;13.90;68.50;;;;;;5072236;28;20505;-47
2021/04/01 02:57:32;;;;;;;19.30;13.67;;;14.00;69.10;;;;;;5073894;28;20459;-48
2021/04/01 03:00:02;;;;;;;16.33;12.23;;;13.90;68.70;;;;;;5073683;28;20455;-48
2021/04/01 03:02:29;;;;;;;18.37;12.70;;;13.90;68.90;;;;;;5073414;28;20426;-48
2021/04/01 03:04:55;;;;;;;24.40;14.33;;;13.90;68.40;;;;;;5072304;28;20446;-48
2021/04/01 03:07:22;;;;;;;20.73;13.43;;;13.90;68.50;;;;;;5073796;28;20443;-48
2021/04/01 03:09:49;;;;;;;17.67;12.80;;;14.30;69.00;;;;;;5073930;28;20465;-48
2021/04/01 03:12:15;;;;;;;16.77;13.30;;;13.70;68.70;;;;;;5074246;28;20915;-48
2021/04/01 03:14:41;;;;;;;21.20;12.70;;;13.80;68.80;;;;;;5073671;28;20473;-47
2021/04/01 03:17:08;;;;;;;18.60;12.57;;;13.90;69.50;;;;;;5073751;28;20447;-47
2021/04/01 03:19:34;;;;;;;22.23;13.53;;;13.80;69.00;;;;;;5073551;28;20926;-47
2021/04/01 03:22:00;;;;;;;19.77;14.00;;;13.90;69.30;;;;;;5073555;28;20502;-47
2021/04/01 03:24:26;;;;;;;22.20;15.33;;;13.80;69.60;;;;;;5073561;28;20465;-48
2021/04/01 03:26:53;;;;;;;24.37;14.03;;;13.80;69.30;;;;;;5073556;28;20437;-49
2021/04/01 03:29:19;;;;;;;23.10;14.00;;;13.80;69.60;;;;;;5072032;28;21044;-48
2021/04/01 03:31:46;;;;;;;46.87;14.10;;;13.80;69.70;;;;;;5073555;28;20502;-48
2021/04/01 03:34:12;;;;;;;21.70;13.47;;;13.80;69.80;;;;;;5072244;28;20556;-48
2021/04/01 03:36:39;;;;;;;22.57;13.50;;;13.80;70.20;;;;;;5072585;28;20515;-48
2021/04/01 03:39:05;;;;;;;21.17;14.73;;;13.20;69.40;;;;;;5072436;28;20476;-48
2021/04/01 03:41:32;;;;;;;19.90;14.23;;;13.70;70.10;;;;;;5072448;28;20500;-48
2021/04/01 03:43:59;;;;;;;19.73;14.40;;;13.90;70.20;;;;;;5072501;28;20519;-47
2021/04/01 03:46:25;;;;;;;19.33;13.57;;;13.70;70.10;;;;;;5073131;28;20432;-48
2021/04/01 03:48:51;;;;;;;18.63;12.30;;;13.80;70.60;;;;;;5072677;28;20456;-48
2021/04/01 03:51:17;;;;;;;26.43;13.77;;;13.90;70.40;;;;;;5072800;28;20471;-47
2021/04/01 03:53:44;;;;;;;20.67;13.53;;;14.00;70.60;;;;;;5070792;28;20578;-47
2021/04/01 03:56:10;;;;;;;20.87;14.90;;;13.70;70.60;;;;;;5073061;28;20435;-47
2021/04/01 03:58:47;;;;;;;20.83;13.90;;;13.70;70.40;;;;;;5072919;28;20499;-48
2021/04/01 04:04:15;;;;;;;18.43;13.33;;;13.50;70.60;;;;;;4998025;28;20859;-48
2021/04/01 04:07:04;;;;;;;24.27;14.23;;;13.70;70.70;;;;;;5073096;28;21004;-48
2021/04/01 04:09:42;;;;;;;26.13;14.77;;;13.70;70.90;;;;;;5073644;28;20961;-47
2021/04/01 04:12:17;;;;;;;25.80;14.30;;;13.80;71.20;;;;;;5073670;28;20441;-48
2021/04/01 04:14:45;;;;;;;23.77;13.80;;;13.60;71.40;;;;;;5072744;28;20483;-47
2021/04/01 04:17:12;;;;;;;24.10;14.00;;;13.60;71.40;;;;;;5072916;28;20583;-47
2021/04/01 04:19:38;;;;;;;20.60;14.20;;;13.30;71.40;;;;;;5072972;28;20451;-48
2021/04/01 04:22:05;;;;;;;26.43;16.13;;;13.50;71.20;;;;;;5073226;28;20796;-47
2021/04/01 04:24:34;;;;;;;29.03;14.43;;;13.70;71.80;;;;;;5072416;28;20436;-49
2021/04/01 04:27:09;;;;;;;21.80;13.23;;;13.80;72.00;;;;;;5072868;28;20417;-48
2021/04/01 04:29:35;;;;;;;22.63;13.30;;;13.70;72.40;;;;;;5072404;28;20470;-48
2021/04/01 04:32:03;;;;;;;26.77;14.20;;;13.60;71.70;;;;;;5072418;28;20460;-47
2021/04/01 04:34:30;;;;;;;22.17;14.00;;;13.50;71.90;;;;;;5071824;28;20491;-48
2021/04/01 04:36:56;;;;;;;18.27;13.77;;;13.20;71.60;;;;;;5072593;28;20518;-48
2021/04/01 04:39:23;;;;;;;19.17;13.50;;;13.40;72.10;;;;;;5073448;28;20469;-47
2021/04/01 04:41:49;;;;;;;19.07;14.23;;;13.50;72.30;;;;;;5073518;28;20790;-47
2021/04/01 04:44:15;;;;;;;26.03;15.50;;;13.60;72.30;;;;;;5073093;28;20432;-47
2021/04/01 04:46:42;;;;;;;36.90;18.10;;;13.50;72.10;;;;;;5071640;28;20452;-46
2021/04/01 04:49:08;;;;;;;27.00;16.53;;;13.60;72.40;;;;;;5073185;28;20456;-47
2021/04/01 04:51:35;;;;;;;29.00;15.77;;;13.30;72.10;;;;;;5073704;28;20432;-46
2021/04/01 04:54:03;;;;;;;34.60;16.30;;;13.70;72.70;;;;;;5071221;28;20559;-47
2021/04/01 04:56:31;;;;;;;27.23;16.70;;;13.70;72.70;;;;;;5072586;28;20432;-47
2021/04/01 04:59:00;;;;;;;18.13;12.70;;;13.50;72.70;;;;;;5072499;28;20622;-47
2021/04/01 05:06:55;;;;;;;28.80;15.13;;;13.50;73.40;;;;;;5072021;28;20506;-46
2021/04/01 05:09:22;;;;;;;22.70;14.97;;;13.50;73.50;;;;;;5072071;28;20920;-46
2021/04/01 05:11:49;;;;;;;26.47;14.37;;;13.50;73.60;;;;;;5073068;28;20455;-47
2021/04/01 05:14:15;;;;;;;22.80;15.63;;;13.70;73.40;;;;;;5072544;28;20839;-47
2021/04/01 05:16:41;;;;;;;22.27;15.03;;;13.70;73.50;;;;;;5071597;28;20484;-47
2021/04/01 05:19:08;;;;;;;21.73;15.30;;;13.50;73.20;;;;;;5072898;28;20467;-47
2021/04/01 05:21:41;;;;;;;30.97;15.93;;;13.50;73.50;;;;;;5071653;28;20429;-46
2021/04/01 05:24:10;;;;;;;24.60;15.23;;;13.50;73.40;;;;;;5071254;28;20475;-46
2021/04/01 05:29:27;;;;;;;19.83;14.27;;;13.60;73.60;;;;;;5064209;28;20485;-46
2021/04/01 05:31:53;;;;;;;23.93;14.23;;;13.50;74.10;;;;;;5071501;28;20582;-47
2021/04/01 05:34:20;;;;;;;20.63;14.80;;;13.50;73.70;;;;;;5070644;28;20473;-46
2021/04/01 05:36:47;;;;;;;22.17;15.73;;;13.50;73.50;;;;;;5071257;28;20443;-47
2021/04/01 05:39:16;;;;;;;20.80;15.07;;;13.60;73.60;;;;;;5071173;28;20897;-47
2021/04/01 05:41:46;;;;;;;20.57;14.27;;;13.70;74.20;;;;;;5069966;28;20447;-46
2021/04/01 05:44:17;;;;;;;20.93;15.37;;;13.50;73.90;;;;;;5071101;28;20613;-47
2021/04/01 05:46:50;;;;;;;24.40;15.10;;;13.40;73.50;;;;;;5071149;28;20460;-48
2021/04/01 05:58:15;;;;;;;23.30;15.27;;;14.00;74.40;;;;;;5071631;28;20907;-46
2021/04/01 06:01:12;;;;;;;23.53;15.10;;;14.00;74.30;;;;;;5075409;28;20513;-47
2021/04/01 06:03:48;;;;;;;24.40;15.80;;;13.70;73.80;;;;;;5074417;28;20460;-47
2021/04/01 06:06:21;;;;;;;26.03;15.17;;;13.30;73.20;;;;;;5074805;28;20803;-47
2021/04/01 06:08:51;;;;;;;21.67;15.03;;;13.70;73.30;;;;;;5074670;28;20497;-48
2021/04/01 06:11:20;;;;;;;23.13;16.43;;;13.80;73.70;;;;;;5074933;28;20423;-47
2021/04/01 06:14:07;;;;;;;25.87;13.53;;;13.80;73.70;;;;;;5075258;28;20473;-47
2021/04/01 06:16:39;;;;;;;25.50;15.57;;;13.90;73.80;;;;;;5074605;28;20447;-46
2021/04/01 06:19:07;;;;;;;31.23;15.47;;;13.90;73.70;;;;;;5074482;28;20487;-47
2021/04/01 06:21:40;;;;;;;28.30;16.60;;;13.70;73.40;;;;;;5073574;28;20463;-46
2021/04/01 06:24:22;;;;;;;24.90;17.03;;;14.10;74.10;;;;;;5074212;28;21028;-47
2021/04/01 06:26:56;;;;;;;30.30;16.77;;;14.20;74.30;;;;;;5074368;28;20783;-47
2021/04/01 06:29:26;;;;;;;27.33;16.97;;;14.10;74.40;;;;;;5074558;28;20456;-47
2021/04/01 06:31:54;;;;;;;30.77;17.70;;;14.30;73.90;;;;;;5074193;28;20561;-48
2021/04/01 06:34:37;;;;;;;27.80;17.57;;;14.10;73.80;;;;;;5073820;28;20472;-48
2021/04/01 06:37:04;;;;;;;29.83;15.00;;;14.20;74.40;;;;;;5074931;28;20853;-46
2021/04/01 06:39:30;;;;;;;24.60;16.47;;;13.70;73.60;;;;;;5074023;28;20836;-46
2021/04/01 06:42:20;;;;;;;23.00;14.63;;;14.40;74.00;;;;;;5074628;28;20459;-47
2021/04/01 06:44:53;;;;;;;21.60;14.77;;;14.40;73.50;;;;;;5074214;28;20799;-47
2021/04/01 06:47:22;;;;;;;27.83;16.23;;;14.40;73.80;;;;;;5074267;28;20431;-46
2021/04/01 06:50:05;;;;;;;25.27;15.57;;;14.30;73.30;;;;;;5074062;28;20979;-47
2021/04/01 06:52:34;;;;;;;30.57;16.63;;;14.30;73.60;;;;;;5073794;28;20436;-47
2021/04/01 06:55:12;;;;;;;28.27;14.63;;;14.10;73.20;;;;;;5073919;28;20487;-48
2021/04/01 06:57:54;;;;;;;22.63;15.87;;;14.60;73.20;;;;;;5073827;28;20418;-48
2021/04/01 07:00:32;;;;;;;23.83;13.50;;;14.80;73.70;;;;;;5074208;28;20527;-48
2021/04/01 07:03:04;;;;;;;22.43;15.90;;;14.70;73.00;;;;;;5073725;28;20436;-48
2021/04/01 07:05:42;;;;;;;29.80;19.07;;;14.70;72.50;;;;;;5073635;28;20433;-48
2021/04/01 07:08:12;;;;;;;27.67;16.23;;;14.80;72.90;;;;;;5071899;28;20467;-46
2021/04/01 07:10:43;;;;;;;23.20;17.13;;;14.90;72.60;;;;;;5073544;28;20438;-47
2021/04/01 07:13:15;;;;;;;30.40;16.97;;;14.60;72.70;;;;;;5073651;28;20433;-47
2021/04/01 07:15:46;;;;;;;30.00;16.00;;;14.80;72.60;;;;;;5073670;28;20430;-47
2021/04/01 07:18:30;;;;;;;22.63;15.93;;;15.10;72.90;;;;;;5073493;28;20507;-47
2021/04/01 07:24:22;;;;;;;22.57;15.90;;;15.00;72.20;;;;;;5073339;28;20554;-47
2021/04/01 07:35:39;;;;;;;23.90;16.87;;;14.50;72.40;;;;;;5073159;28;20462;-47
2021/04/01 07:46:40;;;;;;;33.67;18.03;;;15.40;71.60;;;;;;5074426;28;20429;-47
2021/04/01 07:49:19;;;;;;;29.23;18.50;;;15.70;71.30;;;;;;5073927;28;20473;-47
2021/04/01 07:52:01;;;;;;;27.87;18.00;;;15.40;71.10;;;;;;5074322;28;20437;-46
2021/04/01 07:54:38;;;;;;;28.83;18.60;;;15.50;70.60;;;;;;5075234;28;20477;-48
2021/04/01 07:57:15;;;;;;;26.37;17.33;;;15.70;70.60;;;;;;5074208;28;20483;-47
2021/04/01 08:02:30;;;;;;;32.30;19.90;;;15.40;69.80;;;;;;5069149;28;20442;-47
2021/04/01 08:04:58;;;;;;;31.97;19.60;;;16.20;70.10;;;;;;5071470;28;20445;-47
2021/04/01 08:07:31;;;;;;;33.43;19.23;;;15.60;68.70;;;;;;5072630;28;20560;-47
2021/04/01 08:10:03;;;;;;;27.27;18.80;;;16.10;68.60;;;;;;5073020;28;20453;-47
2021/04/01 08:12:33;;;;;;;30.00;20.00;;;16.30;68.20;;;;;;5071460;28;20499;-48
2021/04/01 08:15:06;;;;;;;30.87;21.63;;;16.30;66.90;;;;;;5072819;28;20477;-48
2021/04/01 08:17:43;;;;;;;31.17;20.50;;;16.40;66.70;;;;;;5073084;28;20474;-48
2021/04/01 08:20:16;;;;;;;37.50;21.67;;;16.40;66.90;;;;;;5072487;28;20512;-49
2021/04/01 08:22:49;;;;;;;31.73;21.43;;;16.30;66.60;;;;;;5072358;28;20426;-47
2021/04/01 08:25:19;;;;;;;39.13;22.27;;;16.60;67.10;;;;;;5072011;28;20445;-47
2021/04/01 08:27:52;;;;;;;34.47;20.87;;;16.40;67.00;;;;;;5071882;28;20426;-47
2021/04/01 08:33:10;;;;;;;36.03;23.07;;;16.90;65.80;;;;;;5068727;28;20444;-47
2021/04/01 08:35:37;;;;;;;32.00;21.33;;;16.50;64.30;;;;;;5072238;28;20487;-46
2021/04/01 08:38:12;;;;;;;43.93;23.30;;;16.40;64.30;;;;;;5072178;28;20461;-46
2021/04/01 08:40:39;;;;;;;36.57;21.47;;;16.90;64.80;;;;;;5072331;28;20433;-46
2021/04/01 08:43:44;;;;;;;42.57;24.73;;;16.70;64.50;;;;;;5072785;28;20425;-46
2021/04/01 08:46:33;;;;;;;38.07;22.83;;;16.80;64.40;;;;;;5072144;28;20498;-45
2021/04/01 08:49:17;;;;;;;35.33;22.63;;;16.80;65.00;;;;;;5071950;28;20455;-48
2021/04/01 08:52:05;;;;;;;42.80;23.33;;;16.70;63.60;;;;;;5071634;28;20513;-47
2021/04/01 08:54:41;;;;;;;38.17;23.40;;;16.80;63.40;;;;;;5071721;28;20470;-48
2021/04/01 08:57:11;;;;;;;41.40;24.60;;;16.60;63.40;;;;;;5071963;28;20423;-48
2021/04/01 08:59:47;;;;;;;38.03;24.53;;;16.50;63.70;;;;;;5071896;28;20543;-48
2021/04/01 09:02:18;;;;;;;42.07;24.03;;;16.50;64.10;;;;;;5072952;28;20428;-47
2021/04/01 09:04:51;;;;;;;36.27;22.93;;;16.30;63.40;;;;;;5071682;28;20875;-47
2021/04/01 09:07:25;;;;;;;39.03;23.73;;;16.30;63.60;;;;;;5072113;28;20430;-47
2021/04/01 09:09:52;;;;;;;40.50;24.60;;;16.20;64.70;;;;;;5071583;28;20540;-48
2021/04/01 09:12:23;;;;;;;40.43;25.37;;;16.10;65.10;;;;;;5071420;28;20471;-48
2021/04/01 09:15:00;;;;;;;36.87;24.10;;;16.80;65.30;;;;;;5071392;28;20473;-47
2021/04/01 09:17:31;;;;;;;42.27;23.63;;;16.40;64.50;;;;;;5070093;28;20526;-47
2021/04/01 09:19:59;;;;;;;41.37;26.17;;;16.40;64.30;;;;;;5071261;28;20452;-47
2021/04/01 09:22:29;;;;;;;33.03;23.37;;;16.60;64.10;;;;;;5070696;28;20434;-48
2021/04/01 09:24:58;;;;;;;34.87;22.97;;;16.90;64.90;;;;;;5071129;28;20440;-48
2021/04/01 09:27:25;;;;;;;33.90;24.70;;;16.80;66.00;;;;;;5071389;28;20450;-48
2021/04/01 09:30:01;;;;;;;34.03;24.33;;;17.10;68.60;;;;;;5071578;28;20971;-48
2021/04/01 09:32:28;;;;;;;38.77;25.50;;;17.40;68.70;;;;;;5070734;28;20455;-48
2021/04/01 09:34:59;;;;;;;39.60;26.83;;;17.00;69.50;;;;;;5074962;28;20484;-47
2021/04/01 09:37:27;;;;;;;43.70;28.27;;;17.00;69.50;;;;;;5075440;28;20434;-46
2021/04/01 09:39:55;;;;;;;39.50;27.73;;;16.70;70.30;;;;;;5075084;28;20601;-47
2021/04/01 09:42:22;;;;;;;38.97;27.23;;;17.10;71.20;;;;;;5074363;28;20430;-48
2021/04/01 09:44:50;;;;;;;48.90;28.80;;;16.80;70.80;;;;;;5073289;28;20446;-48
2021/04/01 09:47:24;;;;;;;43.30;28.53;;;17.10;71.40;;;;;;5074487;28;20430;-47
2021/04/01 09:49:55;;;;;;;41.73;28.27;;;17.80;71.80;;;;;;5074913;28;20576;-47
2021/04/01 09:52:27;;;;;;;43.17;26.77;;;17.80;70.90;;;;;;5074245;28;20423;-46
2021/04/01 09:54:59;;;;;;;43.07;25.77;;;18.30;70.60;;;;;;5073191;28;20820;-48
2021/04/01 09:57:38;;;;;;;39.20;26.37;;;18.20;70.00;;;;;;5074312;28;20444;-47
2021/04/01 10:00:16;;;;;;;49.80;28.10;;;18.40;69.40;;;;;;5074242;28;20459;-47
2021/04/01 10:02:48;;;;;;;44.37;28.20;;;18.20;68.80;;;;;;5074090;28;20880;-46
2021/04/01 10:05:21;;;;;;;40.50;27.67;;;18.30;68.50;;;;;;5074435;28;20534;-48
2021/04/01 10:07:56;;;;;;;44.80;28.50;;;18.30;67.80;;;;;;5074616;28;20427;-47
2021/04/01 10:10:34;;;;;;;41.63;29.10;;;18.30;67.60;;;;;;5074814;28;20861;-47
2021/04/01 10:13:01;;;;;;;42.23;26.50;;;18.30;67.70;;;;;;5074259;28;20435;-47
2021/04/01 10:15:30;;;;;;;42.50;28.90;;;18.20;67.20;;;;;;5074030;28;20471;-46
2021/04/01 10:17:58;;;;;;;48.10;29.80;;;18.30;66.80;;;;;;5073247;28;20543;-47
2021/04/01 10:20:26;;;;;;;41.90;29.37;;;18.50;67.00;;;;;;5073800;28;20439;-48
2021/04/01 10:23:05;;;;;;;40.03;27.47;;;18.30;67.40;;;;;;5073904;28;20442;-47
2021/04/01 10:25:37;;;;;;;49.47;27.37;;;18.20;67.40;;;;;;5072111;28;20610;-47
2021/04/01 10:28:09;;;;;;;42.17;26.00;;;18.20;67.40;;;;;;5073532;28;20432;-47
2021/04/01 10:30:36;;;;;;;37.23;27.37;;;18.40;67.50;;;;;;5074070;28;20445;-47
2021/04/01 10:33:37;;;;;;;41.97;27.60;;;18.50;67.50;;;;;;5071569;28;20492;-46
2021/04/01 10:36:07;;;;;;;44.73;27.63;;;18.30;67.00;;;;;;5074443;28;20515;-47
2021/04/01 10:38:36;;;;;;;49.13;28.97;;;18.00;66.70;;;;;;5097866;22;20549;-46
2021/04/01 10:41:12;;;;;;;40.53;29.20;;;18.30;67.30;;;;;;5072476;28;20460;-46
2021/04/01 10:43:41;;;;;;;40.40;26.73;;;17.90;66.60;;;;;;5073545;28;20438;-46
2021/04/01 10:46:16;;;;;;;41.23;28.37;;;18.10;66.40;;;;;;5075930;28;20533;-45
2021/04/01 10:48:47;;;;;;;46.27;29.40;;;18.10;66.40;;;;;;5076931;28;20546;-47
2021/04/01 10:51:15;;;;;;;45.20;29.43;;;17.90;65.70;;;;;;5075763;28;20809;-47
2021/04/01 10:53:43;;;;;;;48.73;30.20;;;17.80;64.60;;;;;;5074452;28;20876;-47
2021/04/01 10:56:13;;;;;;;45.93;30.43;;;17.80;64.10;;;;;;5074315;28;20462;-46
2021/04/01 10:58:51;;;;;;;46.30;29.13;;;17.30;63.50;;;;;;5073711;28;21030;-47
2021/04/01 11:01:20;;;;;;;41.73;28.70;;;17.30;63.30;;;;;;5074232;28;20440;-46
2021/04/01 11:03:51;;;;;;;45.77;27.87;;;17.60;63.90;;;;;;5071861;28;20460;-48
2021/04/01 11:06:18;;;;;;;43.00;29.20;;;17.80;64.20;;;;;;5072303;28;20452;-46
2021/04/01 11:08:47;;;;;;;49.27;29.07;;;17.80;64.20;;;;;;5072842;28;20470;-45
2021/04/01 11:11:14;;;;;;;49.00;32.70;;;17.80;63.80;;;;;;5073682;28;20508;-46
2021/04/01 11:13:43;;;;;;;42.10;29.87;;;17.90;63.30;;;;;;5072653;28;20531;-46
2021/04/01 11:16:11;;;;;;;44.87;30.77;;;18.00;63.60;;;;;;5073075;28;20436;-46
2021/04/01 11:18:39;;;;;;;43.13;28.30;;;18.10;64.30;;;;;;5073340;28;20557;-46
2021/04/01 11:21:06;;;;;;;44.53;28.17;;;18.20;63.70;;;;;;5072353;28;20454;-45
2021/04/01 11:23:34;;;;;;;39.73;26.70;;;18.20;63.00;;;;;;5073273;28;20437;-45
2021/04/01 11:26:03;;;;;;;39.67;27.30;;;18.70;63.20;;;;;;5073411;28;20529;-46
2021/04/01 11:28:34;;;;;;;48.77;31.87;;;18.70;62.00;;;;;;5073202;28;20922;-46
2021/04/01 11:31:01;;;;;;;44.70;29.40;;;18.80;61.70;;;;;;5071634;28;20494;-46
2021/04/01 11:33:29;;;;;;;40.90;27.03;;;18.90;61.70;;;;;;5072850;28;20441;-45
2021/04/01 11:36:11;;;;;;;42.40;28.60;;;19.10;61.20;;;;;;5073005;28;20516;-45
2021/04/01 11:38:42;;;;;;;36.83;27.40;;;19.20;60.60;;;;;;5072319;28;20456;-45
2021/04/01 11:41:13;;;;;;;36.57;26.20;;;19.10;59.70;;;;;;5072358;28;20433;-46
2021/04/01 11:43:39;;;;;;;41.83;27.60;;;19.10;59.50;;;;;;5072023;28;20421;-46
2021/04/01 11:46:14;;;;;;;42.83;27.57;;;19.00;59.40;;;;;;5072452;28;21177;-46
2021/04/01 11:48:42;;;;;;;39.73;28.50;;;19.20;59.30;;;;;;5070949;28;20483;-46
2021/04/01 11:51:12;;;;;;;42.90;27.00;;;19.40;59.60;;;;;;5072533;28;20441;-45
2021/04/01 11:53:40;;;;;;;42.10;28.00;;;19.40;59.80;;;;;;5071995;28;20490;-47
2021/04/01 11:56:07;;;;;;;38.40;26.73;;;19.10;59.70;;;;;;5070747;28;20586;-45
2021/04/01 11:58:34;;;;;;;52.70;28.80;;;18.90;59.00;;;;;;5072146;28;20519;-45
2021/04/01 12:01:07;;;;;;;36.53;25.60;;;19.30;59.20;;;;;;5072355;28;20985;-47
2021/04/01 12:03:46;;;;;;;42.37;25.53;;;19.20;59.10;;;;;;5071825;28;20454;-47
2021/04/01 12:06:14;;;;;;;36.10;26.90;;;19.10;58.90;;;;;;5071903;28;20880;-46
2021/04/01 12:08:41;;;;;;;40.77;27.13;;;19.30;58.90;;;;;;5071829;28;20454;-50
2021/04/01 12:11:07;;;;;;;42.97;28.20;;;19.30;58.60;;;;;;5071666;28;20800;-47
2021/04/01 12:13:35;;;;;;;42.67;29.00;;;19.80;58.70;;;;;;5071353;28;20429;-46
2021/04/01 12:16:01;;;;;;;47.60;29.40;;;19.60;58.10;;;;;;5071940;28;20508;-46
2021/04/01 12:18:39;;;;;;;48.83;29.73;;;19.60;58.10;;;;;;5071367;28;20437;-46
2021/04/01 12:21:06;;;;;;;40.57;29.00;;;19.60;57.80;;;;;;5071735;28;20438;-45
2021/04/01 12:23:42;;;;;;;39.73;26.60;;;19.80;57.50;;;;;;5071530;28;20433;-45
2021/04/01 12:26:08;;;;;;;43.23;28.33;;;19.70;56.50;;;;;;5072026;28;20442;-46
2021/04/01 12:28:35;;;;;;;44.23;27.97;;;19.60;56.10;;;;;;5071250;28;20824;-45
2021/04/01 12:31:02;;;;;;;45.87;27.30;;;19.10;55.30;;;;;;5071439;28;20941;-47
2021/04/01 12:33:29;;;;;;;44.47;27.53;;;19.30;55.00;;;;;;5071509;28;20437;-45
2021/04/01 12:35:57;;;;;;;47.73;27.77;;;19.40;55.40;;;;;;5071684;28;20839;-46
2021/04/01 12:38:28;;;;;;;42.77;27.97;;;18.80;54.90;;;;;;5071636;28;20423;-45
2021/04/01 12:40:56;;;;;;;51.60;29.77;;;19.20;55.30;;;;;;5070580;28;20459;-45
2021/04/01 12:43:30;;;;;;;40.43;25.27;;;19.30;55.30;;;;;;5071065;28;20477;-45
2021/04/01 12:45:58;;;;;;;38.77;25.20;;;19.30;54.70;;;;;;5071703;28;20425;-45
2021/04/01 12:48:24;;;;;;;45.53;24.47;;;19.40;54.90;;;;;;5071621;28;20425;-45
2021/04/01 12:50:53;;;;;;;43.27;28.50;;;19.00;57.00;;;;;;5071248;28;20536;-45
2021/04/01 12:53:23;;;;;;;38.40;27.53;;;19.20;58.30;;;;;;5070211;28;20925;-45
2021/04/01 12:55:53;;;;;;;38.27;27.60;;;19.20;58.50;;;;;;5070588;28;20485;-44
2021/04/01 12:58:25;;;;;;;39.67;27.93;;;19.30;59.10;;;;;;5071226;28;20480;-44
2021/04/01 13:00:54;;;;;;;43.07;28.87;;;18.80;59.20;;;;;;5073352;28;20941;-47
2021/04/01 13:03:21;;;;;;;39.67;28.97;;;19.00;59.70;;;;;;5073130;28;20425;-46
2021/04/01 13:05:51;;;;;;;39.10;27.97;;;18.20;59.50;;;;;;5072407;28;20444;-46
2021/04/01 13:08:46;;;;;;;40.73;29.90;;;18.60;60.50;;;;;;5072118;28;20787;-46
2021/04/01 13:11:12;;;;;;;42.90;28.67;;;18.80;61.10;;;;;;5072052;28;20763;-46
2021/04/01 13:13:40;;;;;;;43.70;29.73;;;18.20;61.10;;;;;;5071804;28;20854;-45
2021/04/01 13:16:06;;;;;;;46.37;30.20;;;18.60;61.40;;;;;;5071139;28;20468;-46
2021/04/01 13:18:34;;;;;;;45.90;29.50;;;18.60;61.50;;;;;;5072234;28;20445;-46
2021/04/01 13:21:02;;;;;;;41.97;28.67;;;18.50;60.00;;;;;;5071957;28;20436;-46
2021/04/01 13:23:32;;;;;;;44.73;29.20;;;18.50;59.50;;;;;;5072012;28;20448;-46
2021/04/01 13:25:59;;;;;;;44.07;29.77;;;18.20;59.90;;;;;;5071052;28;20433;-46
2021/04/01 13:28:25;;;;;;;52.00;29.93;;;18.20;60.60;;;;;;5070582;28;20464;-46